Time;durP1;ratioP1;P1;durP2;ratioP2;P2;SDS_P1;SDS_P2;PMS_P1;PMS_P2;Temp;Humidity;BMP_temperature;BMP_pressure;BME280_temperature;BME280_humidity;BME280_pressure;Samples;Min_cycle;Max_cycle;Signal;HPM_P1;HPM_P2
2022/03/25 00:00:30;;;;;;;;;;;;;;;7.12;100.00;102961.16;5114227;28;20010;-79
2022/03/25 00:02:55;;;;;;;;;;;;;;;7.10;100.00;102965.34;5112782;28;20618;-77
2022/03/25 00:05:20;;;;;;;;;;;;;;;7.10;100.00;102962.72;5113817;28;19965;-78
2022/03/25 00:07:46;;;;;;;;;;;;;;;7.05;100.00;102963.13;5113932;28;19951;-78
2022/03/25 00:10:11;;;;;;;;;;;;;;;7.01;100.00;102968.09;5113729;28;19916;-77
2022/03/25 00:12:36;;;;;;;;;;;;;;;6.94;100.00;102968.34;5111746;28;20341;-77
2022/03/25 00:15:03;;;;;;;;;;;;;;;6.95;100.00;102977.16;5110375;28;19924;-77
2022/03/25 00:17:28;;;;;;;;;;;;;;;6.93;100.00;102966.53;5113341;28;19916;-77
2022/03/25 00:19:53;;;;;;;;;;;;;;;6.92;100.00;102967.31;5112471;28;20529;-77
2022/03/25 00:22:19;;;;;;;;;;;;;;;6.90;100.00;102971.53;5112118;28;19960;-77
2022/03/25 00:24:44;;;;;;;;;;;;;;;6.92;100.00;102969.03;5112317;28;19923;-76
2022/03/25 00:27:10;;;;;;;;;;;;;;;6.93;100.00;102970.84;5113088;28;20291;-76
2022/03/25 00:29:36;;;;;;;;;;;;;;;6.89;100.00;102974.00;5112569;28;19916;-77
2022/03/25 00:32:02;;;;;;;;;;;;;;;6.83;100.00;102977.91;5111442;28;20398;-77
2022/03/25 00:34:28;;;;;;;;;;;;;;;6.80;100.00;102980.28;5112045;28;19916;-77
2022/03/25 00:36:53;;;;;;;;;;;;;;;6.74;100.00;102974.56;5111241;28;19912;-77
2022/03/25 00:39:18;;;;;;;;;;;;;;;6.70;100.00;102969.81;5111979;28;19915;-77
2022/03/25 00:41:44;;;;;;;;;;;;;;;6.65;100.00;102989.47;5112324;28;20056;-77
2022/03/25 00:44:11;;;;;;;;;;;;;;;6.64;100.00;102982.38;5112863;28;19916;-76
2022/03/25 00:46:36;;;;;;;;;;;;;;;6.67;100.00;102984.38;5116061;28;20367;-76
2022/03/25 00:49:04;;;;;;;;;;;;;;;6.61;100.00;102976.88;5115925;28;19911;-76
2022/03/25 00:51:29;;;;;;;;;;;;;;;6.62;100.00;102981.34;5115926;28;19920;-77
2022/03/25 00:53:56;;;;;;;;;;;;;;;6.54;100.00;102983.31;5115771;28;20371;-77
2022/03/25 00:56:22;;;;;;;;;;;;;;;6.53;100.00;102983.16;5116228;28;20427;-76
2022/03/25 00:58:47;;;;;;;;;;;;;;;6.49;100.00;102986.28;5115651;28;20010;-77
2022/03/25 01:01:13;;;;;;;;;;;;;;;6.45;100.00;102985.13;5114933;28;20477;-77
2022/03/25 01:03:43;;;;;;;;;;;;;;;6.46;100.00;102990.50;5114691;28;19919;-76
2022/03/25 01:06:09;;;;;;;;;;;;;;;6.42;100.00;102988.38;5115465;28;19931;-77
2022/03/25 01:08:35;;;;;;;;;;;;;;;6.37;100.00;102992.31;5115712;28;19916;-77
2022/03/25 01:11:00;;;;;;;;;;;;;;;6.37;100.00;103000.16;5115982;28;19938;-78
2022/03/25 01:13:32;;;;;;;;;;;;;;;6.34;100.00;102994.66;5116509;28;19923;-77
2022/03/25 01:15:57;;;;;;;;;;;;;;;6.33;100.00;102997.13;5116253;28;20417;-76
2022/03/25 01:18:22;;;;;;;;;;;;;;;6.32;100.00;103003.16;5099105;28;19924;-78
2022/03/25 01:20:48;;;;;;;;;;;;;;;6.30;100.00;103003.00;5116905;28;19924;-77
2022/03/25 01:23:16;;;;;;;;;;;;;;;6.26;100.00;103008.75;5115094;28;19916;-77
2022/03/25 01:25:42;;;;;;;;;;;;;;;6.25;100.00;103010.44;5115221;28;20367;-77
2022/03/25 01:28:08;;;;;;;;;;;;;;;6.27;100.00;103005.34;5114818;28;19927;-77
2022/03/25 01:30:34;;;;;;;;;;;;;;;6.23;100.00;103011.09;5114787;28;19926;-78
2022/03/25 01:33:03;;;;;;;;;;;;;;;6.18;100.00;103017.63;5115534;28;19921;-77
2022/03/25 01:35:28;;;;;;;;;;;;;;;6.15;100.00;103007.78;5115745;28;19923;-78
2022/03/25 01:37:54;;;;;;;;;;;;;;;6.04;100.00;103005.94;5115684;28;19912;-77
2022/03/25 01:40:19;;;;;;;;;;;;;;;6.03;100.00;103010.25;5115756;28;20287;-77
2022/03/25 01:42:45;;;;;;;;;;;;;;;6.01;100.00;103009.22;5115333;28;19916;-77
2022/03/25 01:45:11;;;;;;;;;;;;;;;5.96;100.00;103004.31;5115724;28;19973;-78
2022/03/25 01:47:38;;;;;;;;;;;;;;;5.96;100.00;102997.38;5115550;28;19922;-76
2022/03/25 01:50:03;;;;;;;;;;;;;;;5.99;100.00;103004.63;5115514;28;19911;-77
2022/03/25 01:52:29;;;;;;;;;;;;;;;5.96;100.00;103009.53;5116441;28;19916;-78
2022/03/25 01:55:13;;;;;;;;;;;;;;;5.98;100.00;103005.38;5114606;28;19915;-77
2022/03/25 01:57:38;;;;;;;;;;;;;;;5.90;100.00;103009.91;5098782;28;20014;-78
2022/03/25 02:00:04;;;;;;;;;;;;;;;5.80;100.00;103007.25;5115647;28;19950;-77
2022/03/25 02:02:30;;;;;;;;;;;;;;;5.79;100.00;103010.66;5114951;28;20313;-77
2022/03/25 02:05:07;;;;;;;;;;;;;;;5.74;100.00;103010.22;5115058;28;19915;-78
2022/03/25 02:07:32;;;;;;;;;;;;;;;5.71;100.00;103015.19;5115125;28;19915;-77
2022/03/25 02:09:59;;;;;;;;;;;;;;;5.65;100.00;103012.91;5114462;28;19943;-78
2022/03/25 02:12:24;;;;;;;;;;;;;;;5.68;100.00;103015.81;5115286;28;19916;-77
2022/03/25 02:15:00;;;;;;;;;;;;;;;5.67;100.00;103021.84;5116149;28;19920;-78
2022/03/25 02:17:25;;;;;;;;;;;;;;;5.65;100.00;103023.38;5114744;28;19923;-78
2022/03/25 02:19:50;;;;;;;;;;;;;;;5.61;100.00;103030.78;5116415;28;19916;-78
2022/03/25 02:22:16;;;;;;;;;;;;;;;5.60;100.00;103031.59;5113829;28;19963;-78
2022/03/25 02:24:41;;;;;;;;;;;;;;;5.54;100.00;103027.63;5114653;28;19915;-77
2022/03/25 02:27:07;;;;;;;;;;;;;;;5.47;100.00;103030.47;5113214;28;20310;-77
2022/03/25 02:29:33;;;;;;;;;;;;;;;5.49;100.00;103035.84;5113821;28;19923;-77
2022/03/25 02:31:58;;;;;;;;;;;;;;;5.46;100.00;103038.16;5113965;28;19920;-77
2022/03/25 02:34:27;;;;;;;;;;;;;;;5.46;100.00;103036.47;5113848;28;19959;-77
2022/03/25 02:36:52;;;;;;;;;;;;;;;5.42;100.00;103041.28;5114240;28;19915;-77
2022/03/25 02:39:18;;;;;;;;;;;;;;;5.39;100.00;103049.72;5096881;28;19942;-77
2022/03/25 02:41:44;;;;;;;;;;;;;;;5.35;100.00;103053.78;5114994;28;19916;-76
2022/03/25 02:44:11;;;;;;;;;;;;;;;5.33;100.00;103052.72;5114178;28;19924;-76
2022/03/25 02:46:36;;;;;;;;;;;;;;;5.30;100.00;103057.66;5096867;28;19924;-77
2022/03/25 02:49:03;;;;;;;;;;;;;;;5.30;100.00;103064.56;5114158;28;19912;-77
2022/03/25 02:51:30;;;;;;;;;;;;;;;5.25;100.00;103055.38;5114100;28;19920;-77
2022/03/25 02:53:57;;;;;;;;;;;;;;;5.26;100.00;103060.75;5113553;28;20283;-77
2022/03/25 02:56:24;;;;;;;;;;;;;;;5.25;100.00;103065.84;5109697;28;19924;-77
2022/03/25 02:58:51;;;;;;;;;;;;;;;5.21;100.00;103067.25;5114434;28;20395;-77
2022/03/25 03:01:16;;;;;;;;;;;;;;;5.22;100.00;103064.78;5114802;28;19919;-77
2022/03/25 03:03:47;;;;;;;;;;;;;;;5.19;100.00;103064.50;5113893;28;19915;-77
2022/03/25 03:06:13;;;;;;;;;;;;;;;5.15;100.00;103062.38;5113083;28;20332;-77
2022/03/25 03:08:41;;;;;;;;;;;;;;;5.17;100.00;103071.28;5113413;28;19916;-77
2022/03/25 03:11:07;;;;;;;;;;;;;;;5.13;100.00;103069.16;5097052;28;19930;-77
2022/03/25 03:13:34;;;;;;;;;;;;;;;5.11;100.00;103069.78;5113712;28;19923;-77
2022/03/25 03:16:00;;;;;;;;;;;;;;;5.08;100.00;103074.72;5113865;28;19968;-77
2022/03/25 03:18:26;;;;;;;;;;;;;;;5.04;100.00;103084.88;5113919;28;19998;-77
2022/03/25 03:20:51;;;;;;;;;;;;;;;5.04;100.00;103091.78;5114773;28;19946;-77
2022/03/25 03:23:18;;;;;;;;;;;;;;;5.06;100.00;103089.31;5112858;28;19915;-77
2022/03/25 03:25:43;;;;;;;;;;;;;;;5.01;100.00;103095.03;5113763;28;20363;-77
2022/03/25 03:28:08;;;;;;;;;;;;;;;5.03;100.00;103095.16;5113393;28;19923;-78
2022/03/25 03:30:34;;;;;;;;;;;;;;;4.98;100.00;103094.72;5113775;28;19919;-78
2022/03/25 03:32:59;;;;;;;;;;;;;;;4.97;100.00;103099.81;5113532;28;19923;-78
2022/03/25 03:35:25;;;;;;;;;;;;;;;4.91;100.00;103097.56;5113487;28;19915;-77
2022/03/25 03:37:51;;;;;;;;;;;;;;;4.91;100.00;103097.56;5114672;28;19915;-77
2022/03/25 03:40:16;;;;;;;;;;;;;;;4.89;100.00;103100.78;5113240;28;19957;-78
2022/03/25 03:42:41;;;;;;;;;;;;;;;4.88;100.00;103089.44;5112817;28;19916;-77
2022/03/25 03:45:08;;;;;;;;;;;;;;;4.78;100.00;103098.06;5112942;28;19963;-77
2022/03/25 03:47:35;;;;;;;;;;;;;;;4.76;100.00;103098.72;5114535;28;20489;-76
2022/03/25 03:50:01;;;;;;;;;;;;;;;4.68;100.00;103095.34;5112823;28;19973;-77
2022/03/25 03:52:26;;;;;;;;;;;;;;;4.67;100.00;103097.03;5112718;28;19920;-77
2022/03/25 03:54:56;;;;;;;;;;;;;;;4.65;100.00;103105.50;5112636;28;20552;-77
2022/03/25 03:57:22;;;;;;;;;;;;;;;4.61;100.00;103105.97;5112777;28;19924;-77
2022/03/25 03:59:47;;;;;;;;;;;;;;;4.58;100.00;103106.59;5112753;28;19954;-77
2022/03/25 04:02:12;;;;;;;;;;;;;;;4.55;100.00;103102.78;5112272;28;20481;-77
2022/03/25 04:04:39;;;;;;;;;;;;;;;4.55;100.00;103108.91;5113193;28;19923;-77
2022/03/25 04:07:04;;;;;;;;;;;;;;;4.51;100.00;103114.63;5112957;28;19912;-78
2022/03/25 04:09:29;;;;;;;;;;;;;;;4.43;100.00;103123.41;5113932;28;19920;-77
2022/03/25 04:11:55;;;;;;;;;;;;;;;4.40;100.00;103129.22;5112491;28;19920;-77
2022/03/25 04:14:22;;;;;;;;;;;;;;;4.40;100.00;103125.69;5112922;28;19919;-77
2022/03/25 04:16:48;;;;;;;;;;;;;;;4.36;100.00;103131.38;5113901;28;19916;-77
2022/03/25 04:19:14;;;;;;;;;;;;;;;4.31;100.00;103129.22;5112439;28;19920;-78
2022/03/25 04:21:39;;;;;;;;;;;;;;;4.24;100.00;103126.81;5114106;28;19915;-77
2022/03/25 04:24:06;;;;;;;;;;;;;;;4.27;100.00;103136.59;5112396;28;20307;-78
2022/03/25 04:26:32;;;;;;;;;;;;;;;4.25;100.00;103131.25;5113086;28;19973;-77
2022/03/25 04:28:57;;;;;;;;;;;;;;;4.20;100.00;103132.47;5112671;28;19919;-77
2022/03/25 04:31:23;;;;;;;;;;;;;;;4.32;100.00;103143.22;5112614;28;19926;-78
2022/03/25 04:33:49;;;;;;;;;;;;;;;4.29;100.00;103141.22;5112356;28;19919;-78
2022/03/25 04:36:15;;;;;;;;;;;;;;;4.29;100.00;103137.69;5112172;28;20408;-78
2022/03/25 04:38:43;;;;;;;;;;;;;;;4.28;100.00;103138.47;5111260;28;19967;-78
2022/03/25 04:41:10;;;;;;;;;;;;;;;4.25;100.00;103141.66;5095578;28;19919;-76
2022/03/25 04:43:38;;;;;;;;;;;;;;;4.26;100.00;103138.31;5112468;28;19916;-78
2022/03/25 04:46:04;;;;;;;;;;;;;;;4.25;100.00;103145.97;5111850;28;19920;-78
2022/03/25 04:48:30;;;;;;;;;;;;;;;4.21;100.00;103136.00;5112182;28;19987;-78
2022/03/25 04:50:55;;;;;;;;;;;;;;;4.24;100.00;103137.25;5110867;28;19940;-78
2022/03/25 04:53:21;;;;;;;;;;;;;;;4.22;100.00;103133.53;5093392;28;20010;-77
2022/03/25 04:55:47;;;;;;;;;;;;;;;4.16;100.00;103137.25;5109135;28;19916;-79
2022/03/25 04:58:12;;;;;;;;;;;;;;;4.12;100.00;103138.66;5094725;28;20298;-78
2022/03/25 05:00:38;;;;;;;;;;;;;;;4.07;100.00;103140.78;5113541;28;20359;-76
2022/03/25 05:03:03;;;;;;;;;;;;;;;4.03;100.00;103135.13;5111819;28;19995;-76
2022/03/25 05:05:32;;;;;;;;;;;;;;;4.01;100.00;103136.63;5112179;28;20007;-77
2022/03/25 05:07:57;;;;;;;;;;;;;;;4.01;100.00;103123.59;5112255;28;20011;-77
2022/03/25 05:10:22;;;;;;;;;;;;;;;3.95;100.00;103129.16;5112484;28;19943;-76
2022/03/25 05:12:48;;;;;;;;;;;;;;;3.89;100.00;103125.94;5113127;28;19927;-78
2022/03/25 05:15:13;;;;;;;;;;;;;;;3.89;100.00;103128.53;5111712;28;19969;-77
2022/03/25 05:17:44;;;;;;;;;;;;;;;3.85;100.00;103132.50;5111778;28;19920;-76
2022/03/25 05:20:10;;;;;;;;;;;;;;;3.76;100.00;103129.00;5112121;28;19919;-78
2022/03/25 05:22:36;;;;;;;;;;;;;;;3.67;100.00;103135.91;5112288;28;20015;-78
2022/03/25 05:25:06;;;;;;;;;;;;;;;3.69;100.00;103131.75;5113048;28;19955;-78
2022/03/25 05:27:31;;;;;;;;;;;;;;;3.65;100.00;103130.53;5111915;28;19920;-79
2022/03/25 05:29:57;;;;;;;;;;;;;;;3.65;100.00;103135.75;5111891;28;19919;-78
2022/03/25 05:32:22;;;;;;;;;;;;;;;3.62;100.00;103134.50;5098589;28;19924;-78
2022/03/25 05:34:47;;;;;;;;;;;;;;;3.59;100.00;103133.44;5116685;28;19923;-78
2022/03/25 05:37:13;;;;;;;;;;;;;;;3.58;100.00;103134.19;5115465;28;20388;-78
2022/03/25 05:39:39;;;;;;;;;;;;;;;3.62;100.00;103127.63;5115314;28;19916;-77
2022/03/25 05:42:05;;;;;;;;;;;;;;;3.62;100.00;103134.50;5114465;28;19928;-79
2022/03/25 05:44:32;;;;;;;;;;;;;;;3.66;100.00;103141.88;5115031;28;20375;-77
2022/03/25 05:46:57;;;;;;;;;;;;;;;3.64;100.00;103140.81;5097722;28;19935;-78
2022/03/25 05:49:24;;;;;;;;;;;;;;;3.69;100.00;103139.59;5115219;28;20432;-78
2022/03/25 05:51:49;;;;;;;;;;;;;;;3.71;100.00;103130.22;5114646;28;19916;-78
2022/03/25 05:54:16;;;;;;;;;;;;;;;3.80;100.00;103133.75;5097175;28;19967;-78
2022/03/25 05:56:42;;;;;;;;;;;;;;;3.98;100.00;103124.25;5114837;28;20351;-78
2022/03/25 05:59:07;;;;;;;;;;;;;;;4.01;100.00;103128.81;5114585;28;19922;-78
2022/03/25 06:01:32;;;;;;;;;;;;;;;4.03;100.00;103123.00;5097618;28;19919;-78
2022/03/25 06:04:05;;;;;;;;;;;;;;;4.30;100.00;103132.63;5097161;28;19931;-79
2022/03/25 06:06:31;;;;;;;;;;;;;;;4.48;100.00;103124.75;5115726;28;19924;-79
2022/03/25 06:08:56;;;;;;;;;;;;;;;4.48;100.00;103123.06;5114067;28;19927;-79
2022/03/25 06:11:22;;;;;;;;;;;;;;;4.78;100.00;103124.16;5113827;28;19920;-79
2022/03/25 06:13:47;;;;;;;;;;;;;;;4.83;100.00;103127.22;5114863;28;19951;-79
2022/03/25 06:16:13;;;;;;;;;;;;;;;5.11;100.00;103115.13;5113894;28;19926;-78
2022/03/25 06:18:38;;;;;;;;;;;;;;;5.36;100.00;103122.59;5109664;28;19927;-77
2022/03/25 06:21:04;;;;;;;;;;;;;;;4.96;100.00;103125.00;5114605;28;19930;-79
2022/03/25 06:23:29;;;;;;;;;;;;;;;5.16;100.00;103136.44;5115179;28;19923;-79
2022/03/25 06:25:54;;;;;;;;;;;;;;;5.21;100.00;103132.56;5114332;28;19922;-79
2022/03/25 06:28:21;;;;;;;;;;;;;;;5.42;100.00;103135.34;5114230;28;19915;-78
2022/03/25 06:30:46;;;;;;;;;;;;;;;5.82;100.00;103131.19;5116089;27;19927;-77
2022/03/25 06:33:14;;;;;;;;;;;;;;;5.97;100.00;103143.09;5117340;27;20316;-78
2022/03/25 06:35:39;;;;;;;;;;;;;;;6.30;100.00;103154.78;5113620;28;19915;-78
2022/03/25 06:38:05;;;;;;;;;;;;;;;6.39;100.00;103155.59;5097090;28;19922;-78
2022/03/25 06:40:31;;;;;;;;;;;;;;;6.79;100.00;103156.53;5098311;28;19916;-78
2022/03/25 06:42:57;;;;;;;;;;;;;;;6.92;100.00;103152.38;5108927;27;20010;-78
2022/03/25 06:45:23;;;;;;;;;;;;;;;7.18;100.00;103150.31;5121288;27;19946;-77
2022/03/25 06:47:50;;;;;;;;;;;;;;;7.28;100.00;103162.50;5102980;27;19919;-78
2022/03/25 06:50:17;;;;;;;;;;;;;;;7.64;100.00;103153.31;5117783;27;19920;-77
2022/03/25 06:52:44;;;;;;;;;;;;;;;7.77;100.00;103142.19;5107003;28;19941;-78
2022/03/25 06:55:11;;;;;;;;;;;;;;;7.94;100.00;103143.59;5100967;27;19916;-78
2022/03/25 06:57:37;;;;;;;;;;;;;;;7.90;100.00;103142.41;5135364;27;19919;-77
2022/03/25 07:00:03;;;;;;;;;;;;;;;7.90;100.00;103134.53;5124449;27;20331;-78
2022/03/25 07:02:29;;;;;;;;;;;;;;;8.05;100.00;103126.13;5134471;27;19915;-77
2022/03/25 07:04:54;;;;;;;;;;;;;;;7.92;100.00;103129.41;5115840;27;19921;-77
2022/03/25 07:07:26;;;;;;;;;;;;;;;7.97;100.00;103121.94;5116354;27;19968;-78
2022/03/25 07:09:51;;;;;;;;;;;;;;;7.88;100.00;103123.00;5112776;27;19945;-78
2022/03/25 07:12:17;;;;;;;;;;;;;;;7.74;100.00;103123.56;5121819;27;19949;-78
2022/03/25 07:14:44;;;;;;;;;;;;;;;7.75;100.00;103130.63;5115961;27;19919;-78
2022/03/25 07:17:09;;;;;;;;;;;;;;;7.67;100.00;103134.31;5097201;28;19916;-78
2022/03/25 07:19:34;;;;;;;;;;;;;;;7.80;100.00;103136.25;5102483;27;19925;-77
2022/03/25 07:22:00;;;;;;;;;;;;;;;7.64;100.00;103136.69;5115430;27;19923;-77
2022/03/25 07:24:25;;;;;;;;;;;;;;;7.61;100.00;103137.34;5134215;27;20427;-77
2022/03/25 07:26:53;;;;;;;;;;;;;;;7.39;100.00;103147.72;5116059;27;20022;-78
2022/03/25 07:29:18;;;;;;;;;;;;;;;7.57;100.00;103150.06;5114442;27;19916;-78
2022/03/25 07:31:43;;;;;;;;;;;;;;;7.51;100.00;103145.22;5134113;27;19930;-76
2022/03/25 07:34:10;;;;;;;;;;;;;;;7.79;100.00;103155.44;5115501;27;19916;-76
2022/03/25 07:36:35;;;;;;;;;;;;;;;7.87;100.00;103156.97;5115726;27;19911;-76
2022/03/25 07:39:01;;;;;;;;;;;;;;;8.19;100.00;103159.66;5115565;27;19919;-77
2022/03/25 07:41:29;;;;;;;;;;;;;;;8.42;100.00;103164.19;5115911;27;19916;-76
2022/03/25 07:43:55;;;;;;;;;;;;;;;8.46;100.00;103154.88;5115709;27;20370;-77
2022/03/25 07:46:20;;;;;;;;;;;;;;;8.46;100.00;103157.50;5116005;27;19985;-77
2022/03/25 07:48:46;;;;;;;;;;;;;;;8.72;100.00;103157.00;5115793;27;20278;-77
2022/03/25 07:51:13;;;;;;;;;;;;;;;8.82;100.00;103161.25;5116011;27;19970;-77
2022/03/25 07:53:48;;;;;;;;;;;;;;;9.14;100.00;103158.56;5133595;27;19915;-77
2022/03/25 07:56:13;;;;;;;;;;;;;;;9.21;100.00;103164.31;5116153;27;19926;-76
2022/03/25 07:58:38;;;;;;;;;;;;;;;9.08;100.00;103159.81;5116097;27;19941;-76
2022/03/25 08:01:04;;;;;;;;;;;;;;;9.34;100.00;103162.75;5133297;27;20296;-77
2022/03/25 08:03:29;;;;;;;;;;;;;;;9.55;100.00;103167.84;5133978;27;19915;-77
2022/03/25 08:05:56;;;;;;;;;;;;;;;9.73;100.00;103165.72;5131114;27;19976;-77
2022/03/25 08:08:22;;;;;;;;;;;;;;;10.09;100.00;103171.94;5115893;28;19916;-77
2022/03/25 08:10:49;;;;;;;;;;;;;;;10.46;100.00;103160.63;5134427;27;19944;-77
2022/03/25 08:13:15;;;;;;;;;;;;;;;10.86;100.00;103159.16;5133596;27;19919;-77
2022/03/25 08:15:41;;;;;;;;;;;;;;;10.82;100.00;103154.47;5115273;27;19923;-77
2022/03/25 08:18:10;;;;;;;;;;;;;;;10.70;100.00;103154.47;5115243;28;19965;-77
2022/03/25 08:20:39;;;;;;;;;;;;;;;11.26;100.00;103158.41;5115387;27;19956;-76
2022/03/25 08:23:06;;;;;;;;;;;;;;;11.09;100.00;103158.16;5132985;27;19968;-77
2022/03/25 08:28:16;;;;;;;;;;;;;;;11.54;100.00;103158.59;5133558;28;19921;-77
2022/03/25 08:30:42;;;;;;;;;;;;;;;11.69;100.00;103164.03;5133212;28;19919;-77
2022/03/25 08:33:10;;;;;;;;;;;;;;;11.49;100.00;103170.56;5115021;28;19915;-77
2022/03/25 08:35:36;;;;;;;;;;;;;;;11.46;100.00;103160.72;5115862;28;19923;-77
2022/03/25 08:38:02;;;;;;;;;;;;;;;11.25;100.00;103153.97;5133064;28;19929;-77
2022/03/25 08:40:28;;;;;;;;;;;;;;;11.75;100.00;103153.88;5115193;28;20006;-77
2022/03/25 08:42:54;;;;;;;;;;;;;;;12.10;100.00;103158.00;5114823;28;19916;-77
2022/03/25 08:45:21;;;;;;;;;;;;;;;12.19;100.00;103160.34;5114713;28;20332;-77
2022/03/25 08:47:48;;;;;;;;;;;;;;;11.55;100.00;103151.63;5115191;28;19919;-77
2022/03/25 08:50:14;;;;;;;;;;;;;;;11.76;100.00;103157.44;5132769;28;19941;-76
2022/03/25 08:52:42;;;;;;;;;;;;;;;11.76;100.00;103155.72;5097950;28;20470;-77
2022/03/25 08:55:09;;;;;;;;;;;;;;;11.93;100.00;103161.25;5114617;28;19922;-77
2022/03/25 08:57:35;;;;;;;;;;;;;;;12.00;100.00;103151.22;5115300;28;19927;-78
2022/03/25 09:00:01;;;;;;;;;;;;;;;11.67;100.00;103155.09;5132924;28;19940;-77
2022/03/25 09:02:27;;;;;;;;;;;;;;;11.84;100.00;103157.16;5114251;28;19919;-77
2022/03/25 09:04:53;;;;;;;;;;;;;;;11.93;100.00;103161.25;5113628;27;19926;-77
2022/03/25 09:07:20;;;;;;;;;;;;;;;11.58;100.00;103162.38;5135712;27;19915;-77
2022/03/25 09:09:47;;;;;;;;;;;;;;;11.58;100.00;103167.66;5118705;27;19915;-76
2022/03/25 09:12:12;;;;;;;;;;;;;;;11.74;100.00;103172.25;5101662;27;19919;-77
2022/03/25 09:14:39;;;;;;;;;;;;;;;11.73;100.00;103167.78;5118757;27;20320;-77
2022/03/25 09:17:06;;;;;;;;;;;;;;;11.35;100.00;103169.59;5118757;27;20026;-76
2022/03/25 09:19:32;;;;;;;;;;;;;;;11.18;100.00;103167.53;5118663;27;19926;-76
2022/03/25 09:22:00;;;;;;;;;;;;;;;11.08;100.00;103168.59;5101708;27;19920;-76
2022/03/25 09:24:26;;;;;;;;;;;;;;;11.07;100.00;103166.75;5136651;27;19958;-76
2022/03/25 09:26:52;;;;;;;;;;;;;;;11.37;100.00;103167.97;5118892;27;20286;-75
2022/03/25 09:29:17;;;;;;;;;;;;;;;11.38;100.00;103172.47;5101142;27;20089;-76
2022/03/25 09:31:44;;;;;;;;;;;;;;;11.16;100.00;103172.69;5118652;27;19923;-78
2022/03/25 09:36:55;;;;;;;;;;;;;;;11.10;100.00;103173.16;5137162;27;19934;-76
2022/03/25 09:39:21;;;;;;;;;;;;;;;11.36;100.00;103162.59;5117159;27;20323;-77
2022/03/25 09:41:46;;;;;;;;;;;;;;;11.40;100.00;103170.84;5118760;27;19919;-77
2022/03/25 09:44:16;;;;;;;;;;;;;;;11.13;100.00;103160.19;5118354;27;19915;-77
2022/03/25 09:46:42;;;;;;;;;;;;;;;11.56;100.00;103164.00;5100855;27;19923;-77
2022/03/25 09:49:09;;;;;;;;;;;;;;;11.71;100.00;103162.41;5101271;27;19924;-76
2022/03/25 09:51:36;;;;;;;;;;;;;;;11.67;100.00;103160.38;5118287;27;19915;-77
2022/03/25 09:54:03;;;;;;;;;;;;;;;11.60;100.00;103166.03;5117929;27;19923;-78
2022/03/25 09:56:29;;;;;;;;;;;;;;;11.68;100.00;103163.13;5118050;27;20019;-78
2022/03/25 09:58:54;;;;;;;;;;;;;;;11.70;100.00;103171.16;5135404;27;19924;-78
2022/03/25 10:01:20;;;;;;;;;;;;;;;11.68;100.00;103159.56;5100856;27;19919;-76
2022/03/25 10:03:47;;;;;;;;;;;;;;;11.75;100.00;103164.44;5118262;27;19984;-79
2022/03/25 10:06:15;;;;;;;;;;;;;;;12.12;100.00;103168.66;5118107;27;19923;-78
2022/03/25 10:08:42;;;;;;;;;;;;;;;11.92;100.00;103168.28;5101027;27;19920;-77
2022/03/25 10:11:24;;;;;;;;;;;;;;;11.85;100.00;103165.97;5101660;27;19926;-77
2022/03/25 10:14:11;;;;;;;;;;;;;;;11.86;100.00;103167.81;5118388;27;20025;-78
2022/03/25 10:16:37;;;;;;;;;;;;;;;12.11;100.00;103170.41;5136425;27;19965;-79
2022/03/25 10:19:03;;;;;;;;;;;;;;;12.06;100.00;103168.25;5100784;27;20371;-77
2022/03/25 10:21:29;;;;;;;;;;;;;;;11.92;100.00;103163.00;5117171;27;19915;-79
2022/03/25 10:23:56;;;;;;;;;;;;;;;12.08;100.00;103159.63;5117201;27;19915;-77
2022/03/25 10:26:34;;;;;;;;;;;;;;;12.14;100.00;103156.50;5136413;27;19930;-76
2022/03/25 10:29:00;;;;;;;;;;;;;;;12.16;100.00;103147.84;5100706;27;19919;-76
2022/03/25 10:31:26;;;;;;;;;;;;;;;12.03;100.00;103146.13;5117483;27;19930;-77
2022/03/25 10:33:57;;;;;;;;;;;;;;;12.06;100.00;103149.78;5117173;27;19915;-78
2022/03/25 10:36:25;;;;;;;;;;;;;;;12.34;100.00;103155.19;5118106;27;19919;-77
2022/03/25 10:38:54;;;;;;;;;;;;;;;12.24;100.00;103147.44;5117521;27;19998;-76
2022/03/25 10:41:23;;;;;;;;;;;;;;;12.26;100.00;103149.41;5116776;27;19915;-77
2022/03/25 10:43:52;;;;;;;;;;;;;;;12.44;100.00;103147.03;5116771;27;19915;-77
2022/03/25 10:46:30;;;;;;;;;;;;;;;12.55;100.00;103135.44;5135317;27;19920;-77
2022/03/25 10:48:55;;;;;;;;;;;;;;;12.53;100.00;103144.06;5116591;27;19975;-77
2022/03/25 10:51:22;;;;;;;;;;;;;;;12.52;100.00;103140.53;5117104;27;20016;-77
2022/03/25 10:53:56;;;;;;;;;;;;;;;12.65;100.00;103133.38;5135253;27;19991;-77
2022/03/25 10:56:21;;;;;;;;;;;;;;;12.69;100.00;103156.53;5117370;27;19919;-77
2022/03/25 10:58:53;;;;;;;;;;;;;;;12.52;100.00;103140.53;5116938;27;19922;-77
2022/03/25 11:01:19;;;;;;;;;;;;;;;12.53;100.00;103141.44;5117054;27;20382;-76
2022/03/25 11:03:48;;;;;;;;;;;;;;;12.65;100.00;103141.31;5134933;27;19916;-76
2022/03/25 11:06:17;;;;;;;;;;;;;;;12.56;100.00;103137.25;5116466;27;19919;-77
2022/03/25 11:08:43;;;;;;;;;;;;;;;12.65;100.00;103133.38;5117426;27;19972;-76
2022/03/25 11:11:11;;;;;;;;;;;;;;;12.72;100.00;103136.53;5115755;27;19919;-77
2022/03/25 11:13:36;;;;;;;;;;;;;;;12.70;100.00;103138.13;5134446;27;19927;-77
2022/03/25 11:16:07;;;;;;;;;;;;;;;12.80;100.00;103136.97;5098559;27;19919;-77
2022/03/25 11:18:33;;;;;;;;;;;;;;;12.92;100.00;103135.09;5085852;28;20015;-78
2022/03/25 11:21:00;;;;;;;;;;;;;;;12.77;100.00;103131.53;5116742;27;19923;-77
2022/03/25 11:23:31;;;;;;;;;;;;;;;12.74;100.00;103140.16;5098903;27;19935;-77
2022/03/25 11:25:59;;;;;;;;;;;;;;;12.88;100.00;103134.81;5098742;27;20359;-77
2022/03/25 11:28:32;;;;;;;;;;;;;;;12.83;100.00;103129.22;5134411;27;20362;-77
2022/03/25 11:31:00;;;;;;;;;;;;;;;12.72;100.00;103130.28;5115738;27;19926;-76
2022/03/25 11:33:25;;;;;;;;;;;;;;;12.96;100.00;103133.59;5115266;27;19922;-73
2022/03/25 11:36:10;;;;;;;;;;;;;;;13.06;100.00;103132.44;5115900;27;19943;-78
2022/03/25 11:38:35;;;;;;;;;;;;;;;13.24;100.00;103137.94;5115588;27;19916;-75
2022/03/25 11:41:20;;;;;;;;;;;;;;;13.07;100.00;103140.47;5098250;27;19938;-76
2022/03/25 11:44:07;;;;;;;;;;;;;;;13.05;100.00;103133.22;5112159;28;19915;-74
2022/03/25 11:46:33;;;;;;;;;;;;;;;13.26;100.00;103147.78;5100942;27;19920;-78
2022/03/25 11:49:16;;;;;;;;;;;;;;;13.15;100.00;103134.75;5090286;27;20252;-78
2022/03/25 11:51:41;;;;;;;;;;;;;;;13.09;100.00;103133.50;5133119;27;19915;-76
2022/03/25 11:54:33;;;;;;;;;;;;;;;13.01;100.00;103132.13;5115371;27;19911;-77
2022/03/25 11:57:00;;;;;;;;;;;;;;;12.98;100.00;103145.16;5115210;27;19926;-75
2022/03/25 11:59:26;;;;;;;;;;;;;;;13.10;100.00;103126.53;5113011;28;20362;-76
2022/03/25 12:02:11;;;;;;;;;;;;;;;13.03;100.00;103132.22;5113284;28;19912;-78
2022/03/25 12:04:38;;;;;;;;;;;;;;;12.99;100.00;103130.19;5095475;28;19916;-77
2022/03/25 12:07:08;;;;;;;;;;;;;;;13.08;100.00;103133.41;5077679;28;19920;-76
2022/03/25 12:09:38;;;;;;;;;;;;;;;12.99;100.00;103125.84;5112739;27;19923;-76
2022/03/25 12:12:04;;;;;;;;;;;;;;;13.25;100.00;103132.75;5132819;27;20332;-75
2022/03/25 12:14:33;;;;;;;;;;;;;;;13.19;100.00;103115.56;5132254;27;19931;-76
2022/03/25 12:17:08;;;;;;;;;;;;;;;13.21;100.00;103121.88;5114297;27;19915;-76
2022/03/25 12:19:38;;;;;;;;;;;;;;;13.29;100.00;103115.31;5114980;27;19920;-76
2022/03/25 12:22:25;;;;;;;;;;;;;;;13.29;100.00;103110.03;5113977;28;19970;-76
2022/03/25 12:24:53;;;;;;;;;;;;;;;13.35;100.00;103109.53;5114548;28;19926;-76
2022/03/25 12:27:19;;;;;;;;;;;;;;;13.30;100.00;103109.22;5111745;28;19920;-76
2022/03/25 12:29:51;;;;;;;;;;;;;;;13.41;100.00;103104.63;5076268;28;20432;-75
2022/03/25 12:32:17;;;;;;;;;;;;;;;13.42;100.00;103101.13;5095867;28;20371;-74
2022/03/25 12:34:52;;;;;;;;;;;;;;;13.44;100.00;103107.44;5114493;28;19926;-77
2022/03/25 12:37:24;;;;;;;;;;;;;;;13.49;100.00;103108.63;5114973;28;20450;-77